Time;durP1;ratioP1;P1;durP2;ratioP2;P2;SDS_P1;SDS_P2;PMS_P1;PMS_P2;Temp;Humidity;BMP_temperature;BMP_pressure;BME280_temperature;BME280_humidity;BME280_pressure;Samples;Min_cycle;Max_cycle;Signal;HPM_P1;HPM_P2
2023/06/04 00:43:31;;;;;;;5.70;1.40;;;;;;;11.59;100.00;101405.11;103012;1285;617077;-86
2023/06/04 00:46:00;;;;;;;1.50;1.10;;;;;;;11.57;100.00;101409.23;105014;1266;59444;-87
2023/06/04 00:48:27;;;;;;;2.40;0.90;;;;;;;11.57;100.00;101409.04;104824;1266;60290;-86
2023/06/04 00:50:54;;;;;;;2.70;1.50;;;;;;;11.55;100.00;101414.59;105049;1266;72188;-86
2023/06/04 00:53:23;;;;;;;5.80;0.90;;;;;;;11.51;100.00;101409.70;105353;1264;63846;-86
2023/06/04 00:55:50;;;;;;;6.10;1.40;;;;;;;11.45;100.00;101412.30;104994;1262;583881;-87
2023/06/04 00:58:18;;;;;;;1.70;1.00;;;;;;;11.37;100.00;101418.27;105598;1261;61924;-85
2023/06/04 01:00:45;;;;;;;1.50;0.90;;;;;;;11.32;100.00;101416.63;105685;1261;59258;-86
2023/06/04 01:03:17;;;;;;;5.20;1.20;;;;;;;11.26;100.00;101419.42;105604;1256;71994;-87
2023/06/04 01:05:47;;;;;;;3.60;1.10;;;;;;;11.17;100.00;101419.30;105678;1259;63771;-86
2023/06/04 01:08:15;;;;;;;1.70;0.80;;;;;;;11.12;100.00;101417.27;105613;1257;72560;-87
2023/06/04 01:10:55;;;;;;;2.10;0.80;;;;;;;11.09;100.00;101424.61;105598;1256;60513;-86
2023/06/04 01:13:22;;;;;;;2.40;0.90;;;;;;;11.08;100.00;101429.92;105610;1256;60044;-84
2023/06/04 01:15:49;;;;;;;2.00;0.90;;;;;;;11.04;100.00;101430.77;105575;1256;71783;-87
2023/06/04 01:18:28;;;;;;;2.80;1.40;;;;;;;11.03;100.00;101430.50;105497;1259;63977;-81
2023/06/04 01:21:01;;;;;;;1.50;1.10;;;;;;;11.02;100.00;101431.79;105646;1259;72725;-85
2023/06/04 01:23:33;;;;;;;1.40;0.90;;;;;;;10.96;100.00;101429.27;105652;1259;60135;-86
2023/06/04 01:26:04;;;;;;;2.40;1.00;;;;;;;10.90;100.00;101432.02;105586;1257;60249;-86
2023/06/04 01:28:33;;;;;;;5.80;1.40;;;;;;;10.83;100.00;101437.57;105629;1260;71780;-87
2023/06/04 01:31:01;;;;;;;1.20;0.80;;;;;;;10.76;100.00;101441.73;105586;1259;63573;-86
2023/06/04 01:33:28;;;;;;;4.90;1.10;;;;;;;10.70;100.00;101442.05;105421;1262;73416;-86
2023/06/04 01:35:55;;;;;;;1.10;0.60;;;;;;;10.65;100.00;101441.41;105507;1259;61706;-86
2023/06/04 01:38:22;;;;;;;3.40;1.10;;;;;;;10.61;100.00;101440.90;105536;1259;59565;-86
2023/06/04 01:40:50;;;;;;;3.20;0.90;;;;;;;10.57;100.00;101442.12;105594;1257;72096;-87
2023/06/04 01:43:17;;;;;;;2.10;0.60;;;;;;;10.52;100.00;101443.04;105940;1256;62698;-87
2023/06/04 01:45:44;;;;;;;1.40;1.00;;;;;;;10.50;100.00;101444.23;105996;1256;73028;-86
2023/06/04 01:48:11;;;;;;;1.90;1.10;;;;;;;10.46;100.00;101438.45;105917;1257;60039;-85
2023/06/04 01:50:38;;;;;;;1.40;1.00;;;;;;;10.41;100.00;101442.88;106029;1251;60124;-86
2023/06/04 01:53:06;;;;;;;0.90;0.70;;;;;;;10.36;100.00;101443.92;105976;1256;72795;-86
2023/06/04 01:55:34;;;;;;;1.60;1.20;;;;;;;10.33;100.00;101445.66;105932;1255;63924;-85
2023/06/04 01:58:01;;;;;;;2.30;1.00;;;;;;;10.31;100.00;101447.70;105817;1251;72556;-85
2023/06/04 02:00:28;;;;;;;3.50;0.90;;;;;;;10.29;100.00;101454.74;105848;1258;60919;-86
2023/06/04 02:02:55;;;;;;;5.30;1.00;;;;;;;10.28;100.00;101452.52;105937;1257;60276;-89
2023/06/04 02:05:22;;;;;;;1.90;0.80;;;;;;;10.29;100.00;101458.98;105981;1253;73030;-84
2023/06/04 02:07:51;;;;;;;4.80;1.40;;;;;;;10.31;100.00;101459.07;105912;1256;62346;-85
2023/06/04 02:10:19;;;;;;;1.60;1.10;;;;;;;10.32;100.00;101456.21;106008;1259;72584;-85
2023/06/04 02:12:57;;;;;;;4.00;1.00;;;;;;;10.33;100.00;101460.89;107147;1251;60188;-85
2023/06/04 02:15:26;;;;;;;2.70;0.90;;;;;;;10.34;100.00;101467.64;106987;1251;60008;-84
2023/06/04 02:17:58;;;;;;;1.60;1.20;;;;;;;10.35;100.00;101472.52;106078;1255;73043;-84
2023/06/04 02:20:27;;;;;;;3.60;0.90;;;;;;;10.34;100.00;101468.84;105952;1257;63719;-85
2023/06/04 02:22:54;;;;;;;3.20;1.40;;;;;;;10.32;100.00;101467.39;106119;1256;71481;-87
2023/06/04 02:25:22;;;;;;;2.00;1.10;;;;;;;10.30;100.00;101472.91;109286;1252;60749;-86
2023/06/04 02:27:49;;;;;;;3.20;1.20;;;;;;;10.27;100.00;101471.24;109506;1252;58995;-85
2023/06/04 02:30:16;;;;;;;3.60;1.10;;;;;;;10.26;100.00;101471.68;106306;1254;72985;-86
2023/06/04 02:32:50;;;;;;;5.80;1.10;;;;;;;10.28;100.00;101480.33;106437;1256;63685;-84
2023/06/04 02:35:20;;;;;;;2.30;0.90;;;;;;;10.31;100.00;101485.27;106279;1254;71320;-86
2023/06/04 02:37:47;;;;;;;1.30;0.80;;;;;;;10.36;100.00;101485.57;106160;1256;60795;-89
2023/06/04 02:40:14;;;;;;;1.00;0.70;;;;;;;10.41;100.00;101485.02;105905;1254;60351;-87
2023/06/04 02:42:41;;;;;;;2.20;0.70;;;;;;;10.45;100.00;101487.98;105779;1256;72806;-88
2023/06/04 02:45:09;;;;;;;4.50;0.90;;;;;;;10.48;100.00;101490.42;105894;1260;62685;-83
2023/06/04 02:47:37;;;;;;;3.50;0.80;;;;;;;10.55;100.00;101493.45;105754;1255;72743;-88
2023/06/04 02:50:05;;;;;;;1.50;0.90;;;;;;;10.62;100.00;101494.72;105771;1259;60396;-86
2023/06/04 02:52:32;;;;;;;1.50;1.20;;;;;;;10.66;100.00;101497.31;105914;1254;60077;-87
2023/06/04 02:55:03;;;;;;;4.10;1.20;;;;;;;10.68;100.00;101504.08;105893;1256;73069;-84
2023/06/04 02:57:32;;;;;;;2.30;1.10;;;;;;;10.68;100.00;101506.67;106203;1256;63991;-87
2023/06/04 02:59:59;;;;;;;4.90;0.90;;;;;;;10.70;100.00;101508.98;105908;1255;72669;-87
2023/06/04 03:02:27;;;;;;;3.00;1.10;;;;;;;10.72;100.00;101510.84;105822;1254;60687;-86
2023/06/04 03:04:55;;;;;;;1.80;1.10;;;;;;;10.74;100.00;101513.05;105920;1257;60294;-89
2023/06/04 03:07:22;;;;;;;2.50;0.70;;;;;;;10.73;100.00;101512.89;105816;1257;73086;-85
2023/06/04 03:09:50;;;;;;;3.30;1.20;;;;;;;10.73;100.00;101516.72;105884;1257;63698;-87
2023/06/04 03:12:17;;;;;;;1.20;0.80;;;;;;;10.75;100.00;101518.73;105776;1258;72475;-90
2023/06/04 03:14:44;;;;;;;2.30;0.90;;;;;;;10.79;100.00;101519.81;105858;1258;60198;-91
2023/06/04 03:17:11;;;;;;;3.00;0.90;;;;;;;10.81;100.00;101518.86;105865;1253;60971;-90
2023/06/04 03:19:40;;;;;;;2.60;1.80;;;;;;;10.82;100.00;101522.62;105885;1252;73119;-86
2023/06/04 03:22:08;;;;;;;3.00;1.50;;;;;;;10.86;100.00;101525.45;106051;1254;64021;-87
2023/06/04 03:24:36;;;;;;;3.80;2.90;;;;;;;10.88;100.00;101529.52;105657;1253;72781;-85
2023/06/04 03:27:03;;;;;;;4.10;3.30;;;;;;;10.94;100.00;101532.76;105774;1256;60705;-85
2023/06/04 03:29:32;;;;;;;3.70;1.80;;;;;;;10.98;100.00;101533.96;106036;1258;60301;-87
2023/06/04 03:32:01;;;;;;;1.20;0.90;;;;;;;11.01;100.00;101531.38;105797;1257;72890;-86
2023/06/04 03:34:31;;;;;;;5.30;2.10;;;;;;;11.06;100.00;101527.11;105705;1258;63862;-88
2023/06/04 03:37:01;;;;;;;5.40;0.80;;;;;;;11.12;100.00;101530.31;105889;1257;72540;-87
2023/06/04 03:39:28;;;;;;;1.50;0.80;;;;;;;11.20;100.00;101527.30;105790;1255;61712;-88
2023/06/04 03:41:56;;;;;;;2.80;0.90;;;;;;;11.30;100.00;101530.86;105924;1252;59746;-88
2023/06/04 03:44:24;;;;;;;11.90;6.00;;;;;;;11.41;100.00;101530.84;106079;1254;73190;-90
2023/06/04 03:46:51;;;;;;;1.80;1.60;;;;;;;11.52;100.00;101530.85;105851;1253;62310;-90
2023/06/04 03:49:19;;;;;;;1.40;1.00;;;;;;;11.60;100.00;101536.73;105772;1257;72661;-87
2023/06/04 03:51:47;;;;;;;12.80;10.20;;;;;;;11.66;100.00;101537.67;105945;1254;60474;-86
2023/06/04 03:54:17;;;;;;;2.30;1.00;;;;;;;11.70;100.00;101534.69;105916;1256;60355;-87
2023/06/04 03:56:46;;;;;;;2.80;1.10;;;;;;;11.73;100.00;101541.36;105937;1254;73011;-88
2023/06/04 03:59:14;;;;;;;2.70;0.80;;;;;;;11.76;100.00;101538.55;105825;1254;64051;-83
2023/06/04 04:01:42;;;;;;;0.90;0.70;;;;;;;11.80;100.00;101537.50;105858;1254;72665;-88
2023/06/04 04:04:09;;;;;;;3.70;1.10;;;;;;;11.87;100.00;101535.42;105674;1255;60843;-89
2023/06/04 04:06:36;;;;;;;14.00;7.50;;;;;;;11.94;100.00;101530.86;105944;1254;59644;-87
2023/06/04 04:09:05;;;;;;;11.80;3.40;;;;;;;12.02;100.00;101536.25;106044;1257;71979;-87
2023/06/04 04:11:33;;;;;;;1.80;1.30;;;;;;;12.18;100.00;101536.80;105996;1257;63747;-88
2023/06/04 04:14:00;;;;;;;1.50;0.90;;;;;;;12.45;100.00;101536.83;105995;1257;72424;-89
2023/06/04 04:16:28;;;;;;;3.30;0.80;;;;;;;12.75;99.62;101542.39;105827;1260;59768;-90
2023/06/04 04:18:55;;;;;;;4.40;3.90;;;;;;;13.12;98.21;101548.61;105906;1254;60324;-89
2023/06/04 04:21:23;;;;;;;5.00;0.70;;;;;;;13.63;96.28;101549.94;105877;1255;71491;-90
2023/06/04 04:23:51;;;;;;;2.90;1.40;;;;;;;14.24;94.56;101546.34;105959;1257;62794;-91
2023/06/04 04:26:19;;;;;;;1.30;0.80;;;;;;;14.83;90.82;101542.23;105911;1267;72609;-89
2023/06/04 04:28:48;;;;;;;4.80;0.80;;;;;;;15.30;88.03;101539.08;105976;1257;60407;-91
2023/06/04 04:31:15;;;;;;;1.90;0.60;;;;;;;15.71;85.02;101544.46;105852;1257;59525;-88
2023/06/04 04:33:43;;;;;;;0.50;0.50;;;;;;;16.12;80.73;101552.66;106050;1253;73264;-87
2023/06/04 04:36:13;;;;;;;1.80;0.60;;;;;;;16.52;76.83;101551.66;105923;1256;63808;-88
2023/06/04 04:38:54;;;;;;;2.90;0.70;;;;;;;16.96;72.44;101558.64;106073;1254;72624;-87
2023/06/04 04:41:22;;;;;;;2.40;0.90;;;;;;;17.38;69.67;101556.27;105756;1258;60423;-86
2023/06/04 04:43:52;;;;;;;2.70;1.10;;;;;;;17.80;64.82;101555.32;106002;1254;59621;-89
2023/06/04 04:46:24;;;;;;;1.60;0.50;;;;;;;18.18;60.48;101555.09;105964;1253;72907;-88
2023/06/04 04:48:51;;;;;;;0.60;0.30;;;;;;;18.49;57.16;101556.37;105874;1256;63569;-90
2023/06/04 04:51:18;;;;;;;2.80;0.70;;;;;;;18.76;55.14;101558.73;105891;1254;73203;-90
2023/06/04 04:53:45;;;;;;;1.80;0.60;;;;;;;19.03;52.28;101564.58;105887;1255;60509;-92
2023/06/04 04:56:11;;;;;;;3.40;1.20;;;;;;;19.27;49.95;101566.45;105927;1256;60506;-89
2023/06/04 04:58:42;;;;;;;3.10;0.70;;;;;;;19.61;49.40;101565.98;105911;1254;73859;-90
2023/06/04 05:01:08;;;;;;;1.60;0.50;;;;;;;19.94;49.37;101562.90;105885;1254;62650;-93
2023/06/04 05:03:36;;;;;;;8.40;0.70;;;;;;;20.12;45.98;101560.61;105868;1255;72702;-90
2023/06/04 05:06:03;;;;;;;3.30;1.00;;;;;;;20.18;44.69;101555.71;105863;1254;60451;-88
2023/06/04 05:08:30;;;;;;;4.20;1.00;;;;;;;20.25;44.02;101559.20;105820;1253;60856;-89
2023/06/04 05:10:57;;;;;;;2.00;0.60;;;;;;;20.49;43.08;101559.45;106033;1252;73870;-90
2023/06/04 05:13:24;;;;;;;2.50;0.40;;;;;;;20.74;40.09;101558.53;105950;1253;64048;-89
2023/06/04 05:15:56;;;;;;;2.10;0.60;;;;;;;20.85;39.66;101561.64;106269;1253;72659;-90
2023/06/04 05:18:28;;;;;;;2.90;0.70;;;;;;;21.13;38.96;101560.70;105913;1254;60447;-84
2023/06/04 05:21:00;;;;;;;2.10;1.30;;;;;;;21.32;39.17;101566.68;105928;1253;60450;-90
2023/06/04 05:23:29;;;;;;;6.60;0.60;;;;;;;21.53;38.20;101561.10;105848;1259;72927;-89
2023/06/04 05:26:01;;;;;;;1.80;0.30;;;;;;;21.71;37.61;101567.75;106014;1254;63938;-90
2023/06/04 05:28:28;;;;;;;0.60;0.30;;;;;;;21.83;36.39;101564.36;109280;1254;72075;-89
2023/06/04 05:30:58;;;;;;;1.60;0.40;;;;;;;21.77;36.50;101567.09;109544;1253;59524;-86
2023/06/04 05:33:27;;;;;;;0.90;0.50;;;;;;;21.83;37.05;101568.25;106560;1253;60425;-89
2023/06/04 05:35:57;;;;;;;1.40;0.40;;;;;;;22.06;36.18;101570.05;106693;1256;73930;-87
2023/06/04 05:38:26;;;;;;;2.20;0.40;;;;;;;22.18;34.69;101577.31;106535;1256;62789;-87
2023/06/04 05:40:55;;;;;;;7.80;0.90;;;;;;;22.26;35.22;101575.33;106328;1254;70194;-90
2023/06/04 05:43:22;;;;;;;0.90;0.40;;;;;;;22.47;34.81;101575.27;106256;1254;60479;-88
2023/06/04 05:45:51;;;;;;;3.30;0.60;;;;;;;22.62;33.87;101572.45;106176;1254;60487;-92
2023/06/04 05:48:18;;;;;;;4.20;0.40;;;;;;;22.81;33.07;101574.90;106393;1257;74803;-88
2023/06/04 05:50:47;;;;;;;2.90;0.70;;;;;;;23.02;32.05;101574.50;107025;1257;63610;-89
2023/06/04 05:53:15;;;;;;;0.60;0.30;;;;;;;23.13;31.74;101572.16;106493;1254;73510;-90
2023/06/04 05:55:43;;;;;;;0.90;0.30;;;;;;;23.29;31.64;101568.60;106164;1255;61371;-90
2023/06/04 05:58:10;;;;;;;1.60;0.30;;;;;;;23.56;31.40;101565.20;106101;1253;60455;-91
2023/06/04 06:00:37;;;;;;;2.90;0.40;;;;;;;23.79;30.92;101563.83;106117;1258;72652;-90
2023/06/04 06:03:06;;;;;;;2.70;0.50;;;;;;;23.97;31.13;101558.25;107311;1254;62708;-86
2023/06/04 06:05:37;;;;;;;1.20;0.50;;;;;;;24.17;30.86;101552.30;108341;1252;72506;-90
2023/06/04 06:08:04;;;;;;;1.30;0.40;;;;;;;24.35;30.68;101550.20;107511;1254;60477;-85
2023/06/04 06:10:32;;;;;;;2.00;0.40;;;;;;;24.46;29.96;101554.52;106111;1255;60451;-87
2023/06/04 06:13:02;;;;;;;5.30;0.60;;;;;;;24.53;29.83;101549.06;106104;1255;73705;-90
2023/06/04 06:15:31;;;;;;;1.20;0.50;;;;;;;24.65;29.79;101544.09;105940;1254;63708;-91
2023/06/04 06:17:58;;;;;;;2.50;0.60;;;;;;;24.87;29.53;101548.77;106425;1260;72923;-88
2023/06/04 06:20:26;;;;;;;3.10;0.70;;;;;;;25.07;29.51;101556.48;106553;1254;60748;-89
2023/06/04 06:22:53;;;;;;;1.50;0.20;;;;;;;25.24;28.28;101551.42;106663;1254;60441;-89
2023/06/04 06:25:21;;;;;;;1.70;0.40;;;;;;;25.11;27.93;101548.55;106760;1254;73953;-89
2023/06/04 06:27:55;;;;;;;2.30;0.70;;;;;;;25.07;28.13;101547.02;106729;1254;64511;-90
2023/06/04 06:30:23;;;;;;;1.00;0.40;;;;;;;25.04;27.70;101542.11;106543;1254;71235;-88
2023/06/04 06:32:50;;;;;;;1.50;0.50;;;;;;;25.04;28.03;101535.62;106411;1253;60544;-90
2023/06/04 06:35:21;;;;;;;2.00;0.60;;;;;;;25.21;27.69;101537.96;106267;1253;60522;-88
2023/06/04 06:37:48;;;;;;;5.70;1.30;;;;;;;25.52;27.90;101531.73;106571;1253;73870;-91
2023/06/04 06:40:15;;;;;;;1.60;0.40;;;;;;;25.75;27.70;101530.84;106555;1256;62490;-93
2023/06/04 06:42:42;;;;;;;5.00;0.40;;;;;;;25.98;27.10;101537.80;105994;1254;72596;-87
2023/06/04 06:45:09;;;;;;;4.00;0.40;;;;;;;26.14;26.66;101533.52;105887;1254;60513;-91
2023/06/04 06:47:36;;;;;;;1.90;0.50;;;;;;;26.29;26.82;101537.54;106250;1254;60441;-89
2023/06/04 06:50:04;;;;;;;4.90;0.50;;;;;;;26.53;26.51;101537.37;106085;1256;72467;-89
2023/06/04 06:52:31;;;;;;;0.40;0.20;;;;;;;26.83;25.71;101539.16;106190;1252;63637;-90
2023/06/04 06:55:01;;;;;;;2.10;0.30;;;;;;;26.91;24.93;101537.20;106067;1256;72541;-85
2023/06/04 06:57:28;;;;;;;3.60;0.40;;;;;;;26.99;24.66;101538.79;106038;1254;60424;-88
2023/06/04 06:59:55;;;;;;;0.70;0.50;;;;;;;27.07;24.91;101536.06;106118;1254;60351;-89
2023/06/04 07:02:23;;;;;;;1.00;0.40;;;;;;;27.00;24.38;101534.31;106137;1253;74037;-88
2023/06/04 07:04:50;;;;;;;3.50;0.40;;;;;;;26.79;24.39;101536.35;106121;1252;62935;-87
2023/06/04 07:07:17;;;;;;;6.70;0.60;;;;;;;26.72;24.66;101550.02;106147;1253;72660;-89
2023/06/04 07:09:45;;;;;;;3.80;0.50;;;;;;;26.64;24.66;101542.05;106356;1255;60421;-90
2023/06/04 07:12:12;;;;;;;1.20;0.30;;;;;;;26.48;24.76;101542.66;106260;1254;60445;-87
2023/06/04 07:14:40;;;;;;;1.10;0.40;;;;;;;26.35;25.44;101545.56;106019;1254;73811;-89
2023/06/04 07:17:07;;;;;;;2.50;0.40;;;;;;;26.48;25.24;101549.19;105843;1257;63747;-89
2023/06/04 07:19:35;;;;;;;1.50;0.40;;;;;;;26.70;24.95;101546.56;106070;1253;73896;-88
2023/06/04 07:22:02;;;;;;;1.80;0.20;;;;;;;26.91;24.66;101547.60;105880;1257;60574;-90
2023/06/04 07:24:29;;;;;;;1.50;0.20;;;;;;;27.04;24.85;101541.27;105906;1255;60413;-90
2023/06/04 07:26:56;;;;;;;3.90;0.30;;;;;;;27.28;25.47;101541.39;106009;1256;73618;-88
2023/06/04 07:29:23;;;;;;;1.10;0.30;;;;;;;27.58;25.61;101534.80;106413;1253;63961;-88
2023/06/04 07:31:52;;;;;;;1.10;0.20;;;;;;;27.81;24.65;101537.95;106062;1256;72715;-89
2023/06/04 07:34:19;;;;;;;6.90;1.00;;;;;;;28.03;23.86;101540.39;106147;1255;60454;-87
2023/06/04 07:36:51;;;;;;;2.40;0.60;;;;;;;28.14;23.99;101542.20;106028;1256;60598;-89
2023/06/04 07:39:19;;;;;;;1.20;0.40;;;;;;;28.19;23.71;101531.45;106211;1257;73988;-88
2023/06/04 07:41:46;;;;;;;0.60;0.10;;;;;;;28.24;23.60;101534.33;106318;1256;63973;-86
2023/06/04 07:44:12;;;;;;;1.40;0.30;;;;;;;28.35;23.16;101535.14;106329;1254;71215;-89
2023/06/04 07:46:40;;;;;;;4.60;0.30;;;;;;;28.35;22.72;101535.14;106396;1254;60540;-89
2023/06/04 07:49:07;;;;;;;1.40;0.50;;;;;;;28.34;23.27;101536.46;106613;1257;60481;-85
2023/06/04 07:51:34;;;;;;;0.90;0.30;;;;;;;28.31;22.88;101540.21;107351;1252;74320;-85
2023/06/04 07:54:03;;;;;;;1.50;0.60;;;;;;;28.36;22.54;101537.02;106907;1257;63021;-87
2023/06/04 07:56:32;;;;;;;0.70;0.40;;;;;;;28.36;22.93;101531.82;106773;1256;71530;-89
2023/06/04 07:59:00;;;;;;;3.60;0.50;;;;;;;28.29;23.06;101529.88;106993;1253;60553;-87
2023/06/04 08:01:27;;;;;;;3.50;0.30;;;;;;;28.32;22.33;101528.48;106966;1253;61148;-88
2023/06/04 08:03:58;;;;;;;7.70;5.40;;;;;;;28.29;22.22;101525.95;106739;1252;73872;-87
2023/06/04 08:06:26;;;;;;;10.30;8.20;;;;;;;28.18;22.43;101519.55;106593;1252;62703;-89
2023/06/04 08:08:53;;;;;;;0.90;0.80;;;;;;;28.08;22.78;101531.45;106072;1255;72702;-86
2023/06/04 08:11:22;;;;;;;0.40;0.30;;;;;;;28.16;22.13;101528.25;106102;1254;60444;-89
2023/06/04 08:13:49;;;;;;;0.40;0.30;;;;;;;28.24;22.14;101528.50;106329;1252;60518;-91
2023/06/04 08:16:17;;;;;;;0.70;0.30;;;;;;;28.27;22.27;101531.27;106609;1253;72527;-89
2023/06/04 08:18:44;;;;;;;1.50;0.20;;;;;;;28.29;22.13;101534.73;106332;1253;63814;-88
2023/06/04 08:21:11;;;;;;;2.90;0.30;;;;;;;28.28;21.78;101535.59;106050;1256;72718;-87
2023/06/04 08:23:38;;;;;;;1.80;0.30;;;;;;;28.24;21.79;101539.36;106317;1254;60441;-87
2023/06/04 08:26:09;;;;;;;4.80;0.60;;;;;;;28.17;22.27;101537.27;106240;1253;60469;-89
2023/06/04 08:28:38;;;;;;;0.40;0.10;;;;;;;28.16;22.09;101533.30;107329;1253;73856;-87
2023/06/04 08:31:06;;;;;;;3.30;0.30;;;;;;;28.20;22.05;101539.63;109203;1252;63925;-88
2023/06/04 08:33:33;;;;;;;1.30;0.30;;;;;;;28.40;21.92;101528.88;109514;1252;71492;-87
2023/06/04 08:36:02;;;;;;;5.90;0.60;;;;;;;28.54;22.11;101528.30;106774;1255;60424;-90
2023/06/04 08:38:29;;;;;;;2.20;0.30;;;;;;;28.71;21.54;101526.00;106388;1255;60441;-88
2023/06/04 08:40:58;;;;;;;2.00;0.30;;;;;;;28.60;21.22;101535.66;106158;1256;73882;-87
2023/06/04 08:43:25;;;;;;;20.80;18.80;;;;;;;28.46;21.45;101526.07;107166;1253;63852;-87
2023/06/04 08:45:52;;;;;;;1.30;1.20;;;;;;;28.53;21.33;101527.94;106671;1257;72144;-86
2023/06/04 08:48:19;;;;;;;2.70;0.50;;;;;;;28.58;21.63;101530.91;106407;1254;59718;-87
2023/06/04 08:50:47;;;;;;;7.90;2.30;;;;;;;28.62;22.29;101531.67;107829;1255;60423;-89
2023/06/04 08:53:15;;;;;;;6.40;3.10;;;;;;;28.71;21.59;101527.88;107198;1253;72478;-87
2023/06/04 08:55:44;;;;;;;0.60;0.50;;;;;;;28.75;21.85;101526.29;106974;1256;62903;-90
2023/06/04 08:58:11;;;;;;;3.10;1.00;;;;;;;28.77;21.59;101527.08;106900;1254;72651;-86
2023/06/04 09:00:40;;;;;;;4.10;0.50;;;;;;;28.74;21.19;101534.17;106797;1253;60556;-86
2023/06/04 09:03:07;;;;;;;1.00;0.10;;;;;;;28.79;21.54;101530.12;106779;1253;60420;-88
2023/06/04 09:05:36;;;;;;;3.50;0.70;;;;;;;28.86;21.79;101527.20;106952;1253;73843;-86
2023/06/04 09:08:03;;;;;;;0.60;0.30;;;;;;;29.06;21.63;101529.67;107637;1254;62367;-88
2023/06/04 09:10:34;;;;;;;0.90;0.30;;;;;;;29.26;21.25;101525.64;106805;1252;72821;-87
2023/06/04 09:13:03;;;;;;;0.40;0.30;;;;;;;29.40;20.79;101527.02;106356;1260;60541;-87
2023/06/04 09:15:30;;;;;;;0.40;0.20;;;;;;;29.41;20.81;101522.05;106607;1253;60546;-87
2023/06/04 09:17:58;;;;;;;2.30;0.30;;;;;;;29.40;20.37;101519.66;106732;1256;74096;-88
2023/06/04 09:20:25;;;;;;;0.30;0.20;;;;;;;29.33;20.19;101529.09;106420;1252;62489;-89
2023/06/04 09:22:53;;;;;;;1.80;0.40;;;;;;;29.41;20.50;101531.73;106524;1253;71383;-89
2023/06/04 09:25:27;;;;;;;3.20;0.40;;;;;;;29.41;20.59;101528.02;106927;1254;60492;-88
2023/06/04 09:27:57;;;;;;;1.50;1.30;;;;;;;29.17;20.04;101523.44;106712;1252;61751;-87
2023/06/04 09:30:24;;;;;;;0.70;0.40;;;;;;;29.01;21.01;101525.33;106200;1253;73701;-88
2023/06/04 09:32:54;;;;;;;1.40;0.30;;;;;;;29.05;20.93;101527.44;105928;1253;64176;-89
2023/06/04 09:35:21;;;;;;;0.60;0.30;;;;;;;29.03;20.43;101522.03;105625;1254;72621;-90
2023/06/04 09:37:53;;;;;;;1.70;0.30;;;;;;;29.04;20.52;101518.14;105826;1257;60540;-89
2023/06/04 09:40:21;;;;;;;0.50;0.30;;;;;;;29.10;20.18;101513.70;106223;1253;61257;-87
2023/06/04 09:42:53;;;;;;;2.10;0.80;;;;;;;29.06;20.49;101507.13;106412;1254;73934;-89
2023/06/04 09:45:31;;;;;;;5.00;1.00;;;;;;;29.00;20.01;101500.67;106641;1255;62675;-87
2023/06/04 09:47:59;;;;;;;3.60;0.40;;;;;;;28.94;20.05;101496.88;106517;1253;73327;-87
2023/06/04 09:50:29;;;;;;;0.80;0.50;;;;;;;28.93;20.86;101494.71;106651;1257;60506;-89
2023/06/04 09:52:57;;;;;;;3.70;0.50;;;;;;;28.95;20.53;101489.75;106448;1253;60402;-88
2023/06/04 09:55:26;;;;;;;0.90;0.30;;;;;;;28.94;20.01;101484.42;106206;1255;72632;-88
2023/06/04 09:57:53;;;;;;;1.70;0.20;;;;;;;28.87;20.70;101485.92;106146;1256;63537;-87
2023/06/04 10:00:22;;;;;;;1.10;0.20;;;;;;;28.96;20.39;101484.42;106652;1253;71265;-87
2023/06/04 10:02:51;;;;;;;5.50;4.90;;;;;;;29.04;20.80;101475.50;106542;1255;60565;-92
2023/06/04 10:05:21;;;;;;;5.50;1.00;;;;;;;29.14;20.74;101478.79;106574;1253;60513;-90
2023/06/04 10:07:50;;;;;;;3.30;1.50;;;;;;;29.34;20.38;101478.45;106784;1252;73969;-89
2023/06/04 10:10:20;;;;;;;0.80;0.30;;;;;;;29.39;19.92;101476.38;106947;1253;63852;-89
2023/06/04 10:12:50;;;;;;;0.80;0.80;;;;;;;29.36;20.22;101474.02;107526;1251;71903;-89
2023/06/04 10:15:18;;;;;;;1.40;0.30;;;;;;;29.24;19.69;101469.35;109481;1251;60211;-90
2023/06/04 10:17:47;;;;;;;0.60;0.20;;;;;;;29.18;20.45;101475.29;109651;1252;59008;-89
2023/06/04 10:20:14;;;;;;;0.60;0.50;;;;;;;29.14;20.44;101474.75;109581;1253;72908;-88
2023/06/04 10:22:41;;;;;;;0.60;0.40;;;;;;;29.06;20.21;101477.73;109611;1253;62586;-88
2023/06/04 10:25:09;;;;;;;2.60;0.60;;;;;;;29.06;19.79;101468.04;109581;1252;71386;-92
2023/06/04 10:27:37;;;;;;;0.40;0.30;;;;;;;29.16;19.46;101470.73;109667;1251;58779;-87
2023/06/04 10:30:04;;;;;;;1.80;0.20;;;;;;;29.28;19.74;101468.77;109697;1252;58955;-89
2023/06/04 10:32:32;;;;;;;2.10;0.40;;;;;;;29.21;20.40;101467.51;109760;1252;72615;-91
2023/06/04 10:34:59;;;;;;;1.30;0.20;;;;;;;29.21;20.61;101459.93;109800;1252;64060;-88
2023/06/04 10:37:26;;;;;;;0.50;0.50;;;;;;;29.36;20.81;101458.40;109569;1253;71937;-90
2023/06/04 10:39:57;;;;;;;0.90;0.60;;;;;;;29.60;19.72;101459.36;109655;1252;59011;-89
2023/06/04 10:42:24;;;;;;;1.00;0.40;;;;;;;29.71;19.31;101458.17;109540;1252;59089;-87
2023/06/04 10:44:54;;;;;;;1.70;0.20;;;;;;;29.69;19.73;101458.76;109742;1252;72594;-87
2023/06/04 10:47:25;;;;;;;0.30;0.10;;;;;;;29.66;20.26;101453.45;109609;1252;62385;-89
2023/06/04 10:49:54;;;;;;;5.40;0.20;;;;;;;29.67;20.71;101453.67;109435;1252;71374;-91
2023/06/04 10:52:22;;;;;;;0.80;0.30;;;;;;;29.71;20.38;101452.56;109430;1252;60496;-88
2023/06/04 10:54:48;;;;;;;4.40;0.30;;;;;;;29.68;20.56;101448.66;109240;1252;60413;-89
2023/06/04 10:57:16;;;;;;;0.90;0.30;;;;;;;29.59;20.12;101450.70;109180;1252;73137;-89
2023/06/04 10:59:57;;;;;;;1.00;0.20;;;;;;;29.46;20.32;101445.21;107796;1256;62440;-89
2023/06/04 11:02:25;;;;;;;0.80;0.40;;;;;;;29.37;20.26;101445.63;107539;1253;73150;-89
2023/06/04 11:05:06;;;;;;;0.70;0.20;;;;;;;29.21;20.36;101447.05;106488;1256;62025;-89
2023/06/04 11:07:44;;;;;;;0.60;0.20;;;;;;;29.01;19.49;101448.86;106955;1253;60365;-89
2023/06/04 11:10:14;;;;;;;1.50;0.40;;;;;;;28.87;20.07;101447.00;106798;1255;73778;-91
2023/06/04 11:12:47;;;;;;;0.80;0.30;;;;;;;28.74;19.99;101445.42;106678;1253;62290;-87
2023/06/04 11:15:15;;;;;;;2.10;0.40;;;;;;;28.52;20.49;101445.66;107386;1253;72565;-89
2023/06/04 11:18:02;;;;;;;0.50;0.40;;;;;;;28.35;20.54;101444.70;107672;1252;62915;-88
2023/06/04 11:20:31;;;;;;;3.90;0.30;;;;;;;28.24;21.00;101444.20;106908;1252;60553;-89
2023/06/04 11:23:01;;;;;;;1.20;0.20;;;;;;;28.23;21.21;101444.67;106823;1252;73205;-89
2023/06/04 11:25:30;;;;;;;3.50;0.50;;;;;;;28.17;21.35;101447.80;107060;1253;62607;-90
2023/06/04 11:27:59;;;;;;;1.60;0.50;;;;;;;28.01;21.39;101449.70;109746;1252;72541;-88
2023/06/04 11:30:26;;;;;;;0.90;0.30;;;;;;;27.85;21.30;101450.48;109684;1252;60243;-86
2023/06/04 11:33:04;;;;;;;2.40;0.50;;;;;;;27.59;20.96;101449.66;109756;1252;59045;-88
2023/06/04 11:37:59;;;;;;;0.60;0.20;;;;;;;26.76;20.76;101450.05;105614;1293;613069;-90
2023/06/04 11:40:28;;;;;;;2.80;0.80;;;;;;;26.25;21.44;101451.23;107919;1255;59258;-89
2023/06/04 11:42:56;;;;;;;0.40;0.30;;;;;;;25.84;21.68;101444.41;107943;1256;59212;-89
2023/06/04 11:45:25;;;;;;;0.70;0.50;;;;;;;25.42;22.39;101446.56;107103;1256;70919;-90
2023/06/04 11:47:55;;;;;;;2.50;2.30;;;;;;;25.16;22.79;101439.70;107101;1260;64396;-90
2023/06/04 11:50:23;;;;;;;0.90;0.40;;;;;;;25.05;23.53;101439.11;106546;1255;652393;-91
2023/06/04 11:52:54;;;;;;;2.40;0.50;;;;;;;24.94;23.54;101443.03;107117;1253;59259;-89
2023/06/04 11:55:21;;;;;;;9.40;7.40;;;;;;;24.83;23.30;101442.79;107444;1253;59411;-89
2023/06/04 11:57:49;;;;;;;4.70;3.60;;;;;;;24.60;23.29;101442.54;106922;1253;70773;-88
2023/06/04 12:00:17;;;;;;;2.70;1.80;;;;;;;24.31;23.54;101439.27;106822;1253;64796;-89
2023/06/04 12:02:54;;;;;;;1.70;0.70;;;;;;;24.08;23.98;101441.17;106777;1254;72654;-89
2023/06/04 12:05:24;;;;;;;2.20;0.60;;;;;;;23.96;24.78;101443.30;107102;1253;60985;-87